Terminal Aerodrome Forecast
Issued by NWS

Home | Current Version | Previous Version | Text Only | Print | Product List | Glossary On
Versions: 1 2 3 4 5 6 7 8 9 10 11 12
000
FTUS42 TJSJ 010534
TAFJMZ
TAF
TJMZ 010534Z 0106/0206 07010KT P6SM VCSH SCT025 SCT040 BKN050
     FM011300 14012KT P6SM SCT025 SCT060 BKN090
     FM012300 06007KT P6SM FEW025 SCT080
      AMD NOT SKED=

USA.gov is the U.S. government's official web portal to all federal, state and local government web resources and services.